Aviation Digital Data Service (ADDS)

Output produced by METARs form (0856 UTC 19 June 2018)
found at http://www.aviationweather.gov/adds/metars/
 
METAR text: RJFU 190800Z 12009KT 6000 SHRA FEW005 SCT015 BKN025 22/21 Q1003
Conditions at: RJFU (NAGASAKI(CIV/JMS, JP) observed 0800 UTC 19 June 2018
Temperature: 22.0°C (72°F)
Dewpoint: 21.0°C (70°F) [RH = 94%]
Pressure (altimeter): 29.62 inches Hg (1003.0 mb)
Winds: from the ESE (120 degrees) at 10 MPH (9 knots; 4.7 m/s)
Visibility: 4 miles (6 km)
Ceiling: 2500 feet AGL
Clouds: few clouds at 500 feet AGL
scattered clouds at 1500 feet AGL
broken clouds at 2500 feet AGL
Weather: SHRA  (rain showers)

METAR text: RJFU 190735Z 13012KT 5000 R32/0750VP1800U SHRA BR FEW004 SCT010 BKN015 22/21 Q1003 RMK 1ST004 3CU010 5CU015 A2964
Conditions at: RJFU (NAGASAKI(CIV/JMS, JP) observed 0735 UTC 19 June 2018
Temperature: 22.0°C (72°F)
Dewpoint: 21.0°C (70°F) [RH = 94%]
Pressure (altimeter): 29.62 inches Hg (1003.0 mb)
Winds: from the SE (130 degrees) at 14 MPH (12 knots; 6.2 m/s)
Visibility: 3 miles (5 km)
Ceiling: 1500 feet AGL
Clouds: few clouds at 400 feet AGL
scattered clouds at 1000 feet AGL
broken clouds at 1500 feet AGL
Weather: SHRA BR  (rain showers, mist)

METAR text: RJFU 190733Z 14012KT 3000 R32/0650VP1800U SHRA BR FEW004 SCT009 BKN015 22/21 Q1003 RMK 1ST004 3ST009 6CU015 A2964
Conditions at: RJFU (NAGASAKI(CIV/JMS, JP) observed 0733 UTC 19 June 2018
Temperature: 22.0°C (72°F)
Dewpoint: 21.0°C (70°F) [RH = 94%]
Pressure (altimeter): 29.62 inches Hg (1003.0 mb)
Winds: from the SE (140 degrees) at 14 MPH (12 knots; 6.2 m/s)
Visibility: 1.86 miles (2.99 km)
Ceiling: 1500 feet AGL
Clouds: few clouds at 400 feet AGL
scattered clouds at 900 feet AGL
broken clouds at 1500 feet AGL
Weather: SHRA BR  (rain showers, mist)

METAR text: RJFU 190726Z 15011KT 1500 R32/0650VP1800D +SHRA BR FEW005 SCT010 BKN015 22/21 Q1004 RMK 1ST005 4CU010 7CU015 A2965 RI++
Conditions at: RJFU (NAGASAKI(CIV/JMS, JP) observed 0726 UTC 19 June 2018
Temperature: 22.0°C (72°F)
Dewpoint: 21.0°C (70°F) [RH = 94%]
Pressure (altimeter): 29.65 inches Hg (1004.0 mb)
Winds: from the SSE (150 degrees) at 13 MPH (11 knots; 5.7 m/s)
Visibility: 0.93 miles (1.50 km)
Ceiling: 1500 feet AGL
Clouds: few clouds at 500 feet AGL
scattered clouds at 1000 feet AGL
broken clouds at 1500 feet AGL
Weather: +SHRA BR  (heavy rain showers, mist)

METAR text: RJFU 190724Z 15010KT 1500 R32/0650VP1800D +SHRA BR FEW005 SCT010 BKN015 22/21 Q1004 RMK 1ST005 4CU010 7CU015 A2965 RI++
Conditions at: RJFU (NAGASAKI(CIV/JMS, JP) observed 0724 UTC 19 June 2018
Temperature: 22.0°C (72°F)
Dewpoint: 21.0°C (70°F) [RH = 94%]
Pressure (altimeter): 29.65 inches Hg (1004.0 mb)
Winds: from the SSE (150 degrees) at 12 MPH (10 knots; 5.2 m/s)
Visibility: 0.93 miles (1.50 km)
Ceiling: 1500 feet AGL
Clouds: few clouds at 500 feet AGL
scattered clouds at 1000 feet AGL
broken clouds at 1500 feet AGL
Weather: +SHRA BR  (heavy rain showers, mist)

METAR text: RJFU 190723Z 15009KT 1500 R32/0900VP1800D +SHRA BR FEW005 SCT010 BKN015 22/21 Q1004 RMK 1ST005 4CU010 7CU015 A2965 RI++
Conditions at: RJFU (NAGASAKI(CIV/JMS, JP) observed 0723 UTC 19 June 2018
Temperature: 22.0°C (72°F)
Dewpoint: 21.0°C (70°F) [RH = 94%]
Pressure (altimeter): 29.65 inches Hg (1004.0 mb)
Winds: from the SSE (150 degrees) at 10 MPH (9 knots; 4.7 m/s)
Visibility: 0.93 miles (1.50 km)
Ceiling: 1500 feet AGL
Clouds: few clouds at 500 feet AGL
scattered clouds at 1000 feet AGL
broken clouds at 1500 feet AGL
Weather: +SHRA BR  (heavy rain showers, mist)

METAR text: RJFU 190721Z 14008KT 3000 +SHRA BR FEW005 SCT010 BKN015 22/21 Q1004 RMK 1ST005 3CU010 5CU015 A2965
Conditions at: RJFU (NAGASAKI(CIV/JMS, JP) observed 0721 UTC 19 June 2018
Temperature: 22.0°C (72°F)
Dewpoint: 21.0°C (70°F) [RH = 94%]
Pressure (altimeter): 29.65 inches Hg (1004.0 mb)
Winds: from the SE (140 degrees) at 9 MPH (8 knots; 4.2 m/s)
Visibility: 1.86 miles (2.99 km)
Ceiling: 1500 feet AGL
Clouds: few clouds at 500 feet AGL
scattered clouds at 1000 feet AGL
broken clouds at 1500 feet AGL
Weather: +SHRA BR  (heavy rain showers, mist)

METAR text: RJFU 190714Z 12007KT 3000 R32/0900VP1800U SHRA BR FEW005 BKN015 BKN020 22/21 Q1003 RMK 1ST005 5CU015 7CU020 A2964
Conditions at: RJFU (NAGASAKI(CIV/JMS, JP) observed 0714 UTC 19 June 2018
Temperature: 22.0°C (72°F)
Dewpoint: 21.0°C (70°F) [RH = 94%]
Pressure (altimeter): 29.62 inches Hg (1003.0 mb)
Winds: from the ESE (120 degrees) at 8 MPH (7 knots; 3.6 m/s)
Visibility: 1.86 miles (2.99 km)
Ceiling: 1500 feet AGL
Clouds: few clouds at 500 feet AGL
broken clouds at 1500 feet AGL
broken clouds at 2000 feet AGL
Weather: SHRA BR  (rain showers, mist)

METAR text: RJFU 190708Z 12007KT 2000 R32/1100VP1800D +SHRA BR FEW005 BKN015 BKN020 22/21 Q1003 RMK 1ST005 5CU015 7CU020 A2963 RI++
Conditions at: RJFU (NAGASAKI(CIV/JMS, JP) observed 0708 UTC 19 June 2018
Temperature: 22.0°C (72°F)
Dewpoint: 21.0°C (70°F) [RH = 94%]
Pressure (altimeter): 29.62 inches Hg (1003.0 mb)
Winds: from the ESE (120 degrees) at 8 MPH (7 knots; 3.6 m/s)
Visibility: 1.24 miles (2.00 km)
Ceiling: 1500 feet AGL
Clouds: few clouds at 500 feet AGL
broken clouds at 1500 feet AGL
broken clouds at 2000 feet AGL
Weather: +SHRA BR  (heavy rain showers, mist)

METAR text: RJFU 190702Z 12008KT 4000 +SHRA BR FEW008 SCT015 BKN020 22/21 Q1004 RMK 1ST008 3CU015 5CU020 A2965
Conditions at: RJFU (NAGASAKI(CIV/JMS, JP) observed 0702 UTC 19 June 2018
Temperature: 22.0°C (72°F)
Dewpoint: 21.0°C (70°F) [RH = 94%]
Pressure (altimeter): 29.65 inches Hg (1004.0 mb)
Winds: from the ESE (120 degrees) at 9 MPH (8 knots; 4.2 m/s)
Visibility: 2.49 miles (4.01 km)
Ceiling: 2000 feet AGL
Clouds: few clouds at 800 feet AGL
scattered clouds at 1500 feet AGL
broken clouds at 2000 feet AGL
Weather: +SHRA BR  (heavy rain showers, mist)

METAR text: RJFU 190700Z 12008KT 4000 SHRA BR FEW008 SCT015 BKN020 22/21 Q1003
Conditions at: RJFU (NAGASAKI(CIV/JMS, JP) observed 0700 UTC 19 June 2018
Temperature: 22.0°C (72°F)
Dewpoint: 21.0°C (70°F) [RH = 94%]
Pressure (altimeter): 29.62 inches Hg (1003.0 mb)
Winds: from the ESE (120 degrees) at 9 MPH (8 knots; 4.2 m/s)
Visibility: 2.49 miles (4.01 km)
Ceiling: 2000 feet AGL
Clouds: few clouds at 800 feet AGL
scattered clouds at 1500 feet AGL
broken clouds at 2000 feet AGL
Weather: SHRA BR  (rain showers, mist)

METAR text: RJFU 190643Z 11009KT 7000 SHRA FEW008 SCT015 BKN030 22/21 Q1003 RMK 1ST008 3CU015 5CU030 A2964
Conditions at: RJFU (NAGASAKI(CIV/JMS, JP) observed 0643 UTC 19 June 2018
Temperature: 22.0°C (72°F)
Dewpoint: 21.0°C (70°F) [RH = 94%]
Pressure (altimeter): 29.62 inches Hg (1003.0 mb)
Winds: from the ESE (110 degrees) at 10 MPH (9 knots; 4.7 m/s)
Visibility: 4 miles (7 km)
Ceiling: 3000 feet AGL
Clouds: few clouds at 800 feet AGL
scattered clouds at 1500 feet AGL
broken clouds at 3000 feet AGL
Weather: SHRA  (rain showers)

METAR text: RJFU 190600Z 12009KT 9999 -SHRA FEW008 SCT015 BKN025 22/21 Q1004
Conditions at: RJFU (NAGASAKI(CIV/JMS, JP) observed 0600 UTC 19 June 2018
Temperature: 22.0°C (72°F)
Dewpoint: 21.0°C (70°F) [RH = 94%]
Pressure (altimeter): 29.65 inches Hg (1004.0 mb)
Winds: from the ESE (120 degrees) at 10 MPH (9 knots; 4.7 m/s)
Visibility: 6 or more miles (10+ km)
Ceiling: 2500 feet AGL
Clouds: few clouds at 800 feet AGL
scattered clouds at 1500 feet AGL
broken clouds at 2500 feet AGL
Weather: -SHRA  (light rain showers)

METAR text: RJFU 190533Z 15010KT 8000 -RA FEW008 SCT015 BKN045 22/21 Q1005 RMK 1ST008 3CU015 7SC045 A2968
Conditions at: RJFU (NAGASAKI(CIV/JMS, JP) observed 0533 UTC 19 June 2018
Temperature: 22.0°C (72°F)
Dewpoint: 21.0°C (70°F) [RH = 94%]
Pressure (altimeter): 29.68 inches Hg (1005.0 mb)
Winds: from the SSE (150 degrees) at 12 MPH (10 knots; 5.2 m/s)
Visibility: 5 miles (8 km)
Ceiling: 4500 feet AGL
Clouds: few clouds at 800 feet AGL
scattered clouds at 1500 feet AGL
broken clouds at 4500 feet AGL
Weather: -RA  (light rain)

METAR text: RJFU 190500Z 03003KT 010V070 9999 -RA FEW008 SCT015 BKN045 22/21 Q1005
Conditions at: RJFU (NAGASAKI(CIV/JMS, JP) observed 0500 UTC 19 June 2018
Temperature: 22.0°C (72°F)
Dewpoint: 21.0°C (70°F) [RH = 94%]
Pressure (altimeter): 29.68 inches Hg (1005.0 mb)
Winds: from the NNE (30 degrees) at 3 MPH (3 knots; 1.6 m/s)
Visibility: 6 or more miles (10+ km)
Ceiling: 4500 feet AGL
Clouds: few clouds at 800 feet AGL
scattered clouds at 1500 feet AGL
broken clouds at 4500 feet AGL
Weather: -RA  (light rain)

METAR text: RJFU 190400Z 09008KT 9000 -RA FEW010 SCT040 BKN050 23/20 Q1006
Conditions at: RJFU (NAGASAKI(CIV/JMS, JP) observed 0400 UTC 19 June 2018
Temperature: 23.0°C (73°F)
Dewpoint: 20.0°C (68°F) [RH = 83%]
Pressure (altimeter): 29.70 inches Hg (1006.0 mb)
Winds: from the E (90 degrees) at 9 MPH (8 knots; 4.2 m/s)
Visibility: 6 miles (9 km)
Ceiling: 5000 feet AGL
Clouds: few clouds at 1000 feet AGL
scattered clouds at 4000 feet AGL
broken clouds at 5000 feet AGL
Weather: -RA  (light rain)

METAR text: RJFU 190300Z 12012KT 9999 -RA FEW010 BKN060 24/20 Q1005
Conditions at: RJFU (NAGASAKI(CIV/JMS, JP) observed 0300 UTC 19 June 2018
Temperature: 24.0°C (75°F)
Dewpoint: 20.0°C (68°F) [RH = 78%]
Pressure (altimeter): 29.68 inches Hg (1005.0 mb)
Winds: from the ESE (120 degrees) at 14 MPH (12 knots; 6.2 m/s)
Visibility: 6 or more miles (10+ km)
Ceiling: 6000 feet AGL
Clouds: few clouds at 1000 feet AGL
broken clouds at 6000 feet AGL
Weather: -RA  (light rain)

METAR text: RJFU 190200Z 12013KT 9999 VCSH FEW010 BKN070 23/21 Q1006
Conditions at: RJFU (NAGASAKI(CIV/JMS, JP) observed 0200 UTC 19 June 2018
Temperature: 23.0°C (73°F)
Dewpoint: 21.0°C (70°F) [RH = 89%]
Pressure (altimeter): 29.70 inches Hg (1006.0 mb)
Winds: from the ESE (120 degrees) at 15 MPH (13 knots; 6.8 m/s)
Visibility: 6 or more miles (10+ km)
Ceiling: 7000 feet AGL
Clouds: few clouds at 1000 feet AGL
broken clouds at 7000 feet AGL
Weather: VCSH  (showers in vicinity)

METAR text: RJFU 190100Z 13008KT 9999 -RA FEW007 SCT015 BKN060 23/21 Q1006
Conditions at: RJFU (NAGASAKI(CIV/JMS, JP) observed 0100 UTC 19 June 2018
Temperature: 23.0°C (73°F)
Dewpoint: 21.0°C (70°F) [RH = 89%]
Pressure (altimeter): 29.70 inches Hg (1006.0 mb)
Winds: from the SE (130 degrees) at 9 MPH (8 knots; 4.2 m/s)
Visibility: 6 or more miles (10+ km)
Ceiling: 6000 feet AGL
Clouds: few clouds at 700 feet AGL
scattered clouds at 1500 feet AGL
broken clouds at 6000 feet AGL
Weather: -RA  (light rain)

METAR text: RJFU 190000Z 14004KT 110V180 8000 -RA SCT004 SCT015 BKN050 23/22 Q1007
Conditions at: RJFU (NAGASAKI(CIV/JMS, JP) observed 0000 UTC 19 June 2018
Temperature: 23.0°C (73°F)
Dewpoint: 22.0°C (72°F) [RH = 94%]
Pressure (altimeter): 29.73 inches Hg (1007.0 mb)
Winds: from the SE (140 degrees) at 5 MPH (4 knots; 2.1 m/s)
Visibility: 5 miles (8 km)
Ceiling: 5000 feet AGL
Clouds: scattered clouds at 400 feet AGL
scattered clouds at 1500 feet AGL
broken clouds at 5000 feet AGL
Weather: -RA  (light rain)

METAR text: RJFU 182300Z VRB02KT 6000 -RA FEW005 BKN010 BKN045 22/22 Q1006
Conditions at: RJFU (NAGASAKI(CIV/JMS, JP) observed 2300 UTC 18 June 2018
Temperature: 22.0°C (72°F)
Dewpoint: 22.0°C (72°F) [RH = 100%]
Pressure (altimeter): 29.70 inches Hg (1006.0 mb)
Winds: variable direction winds at 2 MPH (2 knots; 1.0 m/s)
Visibility: 4 miles (6 km)
Ceiling: 1000 feet AGL
Clouds: few clouds at 500 feet AGL
broken clouds at 1000 feet AGL
broken clouds at 4500 feet AGL
Weather: -RA  (light rain)

METAR text: RJFU 182214Z 10003KT 8000 -RA FEW005 SCT015 BKN080 22/22 Q1006 RMK 1ST005 3CU015 7AC080 A2971
Conditions at: RJFU (NAGASAKI(CIV/JMS, JP) observed 2214 UTC 18 June 2018
Temperature: 22.0°C (72°F)
Dewpoint: 22.0°C (72°F) [RH = 100%]
Pressure (altimeter): 29.70 inches Hg (1006.0 mb)
Winds: from the E (100 degrees) at 3 MPH (3 knots; 1.6 m/s)
Visibility: 5 miles (8 km)
Ceiling: 8000 feet AGL
Clouds: few clouds at 500 feet AGL
scattered clouds at 1500 feet AGL
broken clouds at 8000 feet AGL
Weather: -RA  (light rain)

METAR text: RJFU 182200Z 11002KT 5000 R32/1800D RA BR FEW005 SCT010 BKN025 22/21 Q1006
Conditions at: RJFU (NAGASAKI(CIV/JMS, JP) observed 2200 UTC 18 June 2018
Temperature: 22.0°C (72°F)
Dewpoint: 21.0°C (70°F) [RH = 94%]
Pressure (altimeter): 29.70 inches Hg (1006.0 mb)
Winds: from the ESE (110 degrees) at 2 MPH (2 knots; 1.0 m/s)
Visibility: 3 miles (5 km)
Ceiling: 2500 feet AGL
Clouds: few clouds at 500 feet AGL
scattered clouds at 1000 feet AGL
broken clouds at 2500 feet AGL
Weather: RA BR  (rain, mist)

METAR text: RJFU 182110Z VRB01KT 9000 -SHRA FEW005 SCT015 BKN035 22/21 Q1006 RMK 1ST005 3CU015 6CU035 A2972
Conditions at: RJFU (NAGASAKI(CIV/JMS, JP) observed 2110 UTC 18 June 2018
Temperature: 22.0°C (72°F)
Dewpoint: 21.0°C (70°F) [RH = 94%]
Pressure (altimeter): 29.70 inches Hg (1006.0 mb)
Winds: variable direction winds at 1 MPH (1 knots; 0.5 m/s)
Visibility: 6 miles (9 km)
Ceiling: 3500 feet AGL
Clouds: few clouds at 500 feet AGL
scattered clouds at 1500 feet AGL
broken clouds at 3500 feet AGL
Weather: -SHRA  (light rain showers)

METAR text: RJFU 181200Z 28005KT 240V330 9999 FEW030 BKN050 BKN170 25/19 Q1008
Conditions at: RJFU (NAGASAKI(CIV/JMS, JP) observed 1200 UTC 18 June 2018
Temperature: 25.0°C (77°F)
Dewpoint: 19.0°C (66°F) [RH = 69%]
Pressure (altimeter): 29.76 inches Hg (1008.0 mb)
Winds: from the W (280 degrees) at 6 MPH (5 knots; 2.6 m/s)
Visibility: 6 or more miles (10+ km)
Ceiling: 5000 feet AGL
Clouds: few clouds at 3000 feet AGL
broken clouds at 5000 feet AGL
broken clouds at 17000 feet AGL
Weather: no significant weather observed at this time

METAR text: RJFU 181100Z 18006KT 160V260 9999 FEW030 SCT050 BKN160 25/18 Q1006
Conditions at: RJFU (NAGASAKI(CIV/JMS, JP) observed 1100 UTC 18 June 2018
Temperature: 25.0°C (77°F)
Dewpoint: 18.0°C (64°F) [RH = 65%]
Pressure (altimeter): 29.70 inches Hg (1006.0 mb)
Winds: from the S (180 degrees) at 7 MPH (6 knots; 3.1 m/s)
Visibility: 6 or more miles (10+ km)
Ceiling: 16000 feet AGL
Clouds: few clouds at 3000 feet AGL
scattered clouds at 5000 feet AGL
broken clouds at 16000 feet AGL
Weather: no significant weather observed at this time

METAR text: RJFU 181000Z 21003KT 170V240 9999 VCSH FEW030 BKN050 BKN070 25/19 Q1007
Conditions at: RJFU (NAGASAKI(CIV/JMS, JP) observed 1000 UTC 18 June 2018
Temperature: 25.0°C (77°F)
Dewpoint: 19.0°C (66°F) [RH = 69%]
Pressure (altimeter): 29.73 inches Hg (1007.0 mb)
Winds: from the SSW (210 degrees) at 3 MPH (3 knots; 1.6 m/s)
Visibility: 6 or more miles (10+ km)
Ceiling: 5000 feet AGL
Clouds: few clouds at 3000 feet AGL
broken clouds at 5000 feet AGL
broken clouds at 7000 feet AGL
Weather: VCSH  (showers in vicinity)

METAR text: RJFU 180900Z 24005KT 9999 FEW030 BKN050 26/20 Q1006
Conditions at: RJFU (NAGASAKI(CIV/JMS, JP) observed 0900 UTC 18 June 2018
Temperature: 26.0°C (79°F)
Dewpoint: 20.0°C (68°F) [RH = 70%]
Pressure (altimeter): 29.70 inches Hg (1006.0 mb)
Winds: from the WSW (240 degrees) at 6 MPH (5 knots; 2.6 m/s)
Visibility: 6 or more miles (10+ km)
Ceiling: 5000 feet AGL
Clouds: few clouds at 3000 feet AGL
broken clouds at 5000 feet AGL
Weather: no significant weather observed at this time

METAR text: RJFU 180800Z 25007KT 230V290 9999 FEW030 BKN050 BKN070 26/19 Q1006
Conditions at: RJFU (NAGASAKI(CIV/JMS, JP) observed 0800 UTC 18 June 2018
Temperature: 26.0°C (79°F)
Dewpoint: 19.0°C (66°F) [RH = 65%]
Pressure (altimeter): 29.70 inches Hg (1006.0 mb)
Winds: from the WSW (250 degrees) at 8 MPH (7 knots; 3.6 m/s)
Visibility: 6 or more miles (10+ km)
Ceiling: 5000 feet AGL
Clouds: few clouds at 3000 feet AGL
broken clouds at 5000 feet AGL
broken clouds at 7000 feet AGL
Weather: no significant weather observed at this time

METAR text: RJFU 180700Z 25011KT 9999 FEW030 BKN070 BKN/// 27/20 Q1006
Conditions at: RJFU (NAGASAKI(CIV/JMS, JP) observed 0700 UTC 18 June 2018
Temperature: 27.0°C (81°F)
Dewpoint: 20.0°C (68°F) [RH = 66%]
Pressure (altimeter): 29.70 inches Hg (1006.0 mb)
Winds: from the WSW (250 degrees) at 13 MPH (11 knots; 5.7 m/s)
Visibility: 6 or more miles (10+ km)
Ceiling: 7000 feet AGL
Clouds: few clouds at 3000 feet AGL
broken clouds at 7000 feet AGL
Weather: no significant weather observed at this time

METAR text: RJFU 180600Z 26004KT 230V310 9999 FEW030 BKN080 BKN100 28/21 Q1006
Conditions at: RJFU (NAGASAKI(CIV/JMS, JP) observed 0600 UTC 18 June 2018
Temperature: 28.0°C (82°F)
Dewpoint: 21.0°C (70°F) [RH = 66%]
Pressure (altimeter): 29.70 inches Hg (1006.0 mb)
Winds: from the W (260 degrees) at 5 MPH (4 knots; 2.1 m/s)
Visibility: 6 or more miles (10+ km)
Ceiling: 8000 feet AGL
Clouds: few clouds at 3000 feet AGL
broken clouds at 8000 feet AGL
broken clouds at 10000 feet AGL
Weather: no significant weather observed at this time

METAR text: RJFU 180500Z 24005KT 210V280 9999 FEW025 BKN090 BKN/// 28/20 Q1006
Conditions at: RJFU (NAGASAKI(CIV/JMS, JP) observed 0500 UTC 18 June 2018
Temperature: 28.0°C (82°F)
Dewpoint: 20.0°C (68°F) [RH = 62%]
Pressure (altimeter): 29.70 inches Hg (1006.0 mb)
Winds: from the WSW (240 degrees) at 6 MPH (5 knots; 2.6 m/s)
Visibility: 6 or more miles (10+ km)
Ceiling: 9000 feet AGL
Clouds: few clouds at 2500 feet AGL
broken clouds at 9000 feet AGL
Weather: no significant weather observed at this time

METAR text: RJFU 180400Z 02003KT 290V070 9999 FEW025 SCT080 BKN/// 27/21 Q1006
Conditions at: RJFU (NAGASAKI(CIV/JMS, JP) observed 0400 UTC 18 June 2018
Temperature: 27.0°C (81°F)
Dewpoint: 21.0°C (70°F) [RH = 70%]
Pressure (altimeter): 29.70 inches Hg (1006.0 mb)
Winds: from the NNE (20 degrees) at 3 MPH (3 knots; 1.6 m/s)
Visibility: 6 or more miles (10+ km)
Ceiling: at least 12,000 feet AGL
Clouds: few clouds at 2500 feet AGL
scattered clouds at 8000 feet AGL
Weather: no significant weather observed at this time

METAR text: RJFU 180300Z 16006KT 9999 FEW025 BKN060 BKN/// 27/21 Q1007
Conditions at: RJFU (NAGASAKI(CIV/JMS, JP) observed 0300 UTC 18 June 2018
Temperature: 27.0°C (81°F)
Dewpoint: 21.0°C (70°F) [RH = 70%]
Pressure (altimeter): 29.73 inches Hg (1007.0 mb)
Winds: from the SSE (160 degrees) at 7 MPH (6 knots; 3.1 m/s)
Visibility: 6 or more miles (10+ km)
Ceiling: 6000 feet AGL
Clouds: few clouds at 2500 feet AGL
broken clouds at 6000 feet AGL
Weather: no significant weather observed at this time

METAR text: RJFU 180200Z VRB02KT 9999 FEW030 SCT060 BKN/// 27/21 Q1006
Conditions at: RJFU (NAGASAKI(CIV/JMS, JP) observed 0200 UTC 18 June 2018
Temperature: 27.0°C (81°F)
Dewpoint: 21.0°C (70°F) [RH = 70%]
Pressure (altimeter): 29.70 inches Hg (1006.0 mb)
Winds: variable direction winds at 2 MPH (2 knots; 1.0 m/s)
Visibility: 6 or more miles (10+ km)
Ceiling: at least 12,000 feet AGL
Clouds: few clouds at 3000 feet AGL
scattered clouds at 6000 feet AGL
Weather: no significant weather observed at this time

METAR text: RJFU 180100Z 36005KT 9999 FEW030 SCT120 BKN/// 26/20 Q1007
Conditions at: RJFU (NAGASAKI(CIV/JMS, JP) observed 0100 UTC 18 June 2018
Temperature: 26.0°C (79°F)
Dewpoint: 20.0°C (68°F) [RH = 70%]
Pressure (altimeter): 29.73 inches Hg (1007.0 mb)
Winds: from the N (360 degrees) at 6 MPH (5 knots; 2.6 m/s)
Visibility: 6 or more miles (10+ km)
Ceiling: at least 12,000 feet AGL
Clouds: few clouds at 3000 feet AGL
scattered clouds at 12000 feet AGL
Weather: no significant weather observed at this time

METAR text: RJFU 180000Z 16003KT 130V200 9999 FEW030 SCT120 BKN/// 25/20 Q1007
Conditions at: RJFU (NAGASAKI(CIV/JMS, JP) observed 0000 UTC 18 June 2018
Temperature: 25.0°C (77°F)
Dewpoint: 20.0°C (68°F) [RH = 74%]
Pressure (altimeter): 29.73 inches Hg (1007.0 mb)
Winds: from the SSE (160 degrees) at 3 MPH (3 knots; 1.6 m/s)
Visibility: 6 or more miles (10+ km)
Ceiling: at least 12,000 feet AGL
Clouds: few clouds at 3000 feet AGL
scattered clouds at 12000 feet AGL
Weather: no significant weather observed at this time

METAR text: RJFU 172300Z 15004KT 9999 FEW030 SCT050 BKN120 25/20 Q1007
Conditions at: RJFU (NAGASAKI(CIV/JMS, JP) observed 2300 UTC 17 June 2018
Temperature: 25.0°C (77°F)
Dewpoint: 20.0°C (68°F) [RH = 74%]
Pressure (altimeter): 29.73 inches Hg (1007.0 mb)
Winds: from the SSE (150 degrees) at 5 MPH (4 knots; 2.1 m/s)
Visibility: 6 or more miles (10+ km)
Ceiling: 12000 feet AGL
Clouds: few clouds at 3000 feet AGL
scattered clouds at 5000 feet AGL
broken clouds at 12000 feet AGL
Weather: no significant weather observed at this time

METAR text: RJFU 172200Z 14005KT 9999 FEW040 SCT060 BKN120 24/20 Q1007
Conditions at: RJFU (NAGASAKI(CIV/JMS, JP) observed 2200 UTC 17 June 2018
Temperature: 24.0°C (75°F)
Dewpoint: 20.0°C (68°F) [RH = 78%]
Pressure (altimeter): 29.73 inches Hg (1007.0 mb)
Winds: from the SE (140 degrees) at 6 MPH (5 knots; 2.6 m/s)
Visibility: 6 or more miles (10+ km)
Ceiling: 12000 feet AGL
Clouds: few clouds at 4000 feet AGL
scattered clouds at 6000 feet AGL
broken clouds at 12000 feet AGL
Weather: no significant weather observed at this time

METAR text: RJFU 172110Z 22003KT 190V260 9999 FEW040 BKN060 BKN100 23/21 Q1007 RMK 1CU040 6SC060 7AC100 A2974
Conditions at: RJFU (NAGASAKI(CIV/JMS, JP) observed 2110 UTC 17 June 2018
Temperature: 23.0°C (73°F)
Dewpoint: 21.0°C (70°F) [RH = 89%]
Pressure (altimeter): 29.73 inches Hg (1007.0 mb)
Winds: from the SW (220 degrees) at 3 MPH (3 knots; 1.6 m/s)
Visibility: 6 or more miles (10+ km)
Ceiling: 6000 feet AGL
Clouds: few clouds at 4000 feet AGL
broken clouds at 6000 feet AGL
broken clouds at 10000 feet AGL
Weather: no significant weather observed at this time